UA Monticello, Arkansas
Current Conditions -  °F | °C
As of 5:53 PM on Monday 24 Nov 2014 (Local Time) from KLLQ Reporting Station
Clear Clear  
Wind Chill: 47°   Ceiling: Unl
Heat Index: 47°   Visibility: 10mi
Dew Point: 37°   Wind: 3mph
Humidity: 68%   Direction: 250°WSW
Pressure: 30.01"   Gusts: NA
Location:  33.5819°N, 91.7907°W
Report Text: KLLQ 242353Z AUTO 25003KT 10SM CLR 08/03 A3001 RMK AO2 SLP163 T00830028 10156 20083 51020
Loading
Personal Weather Stations






























Interactive Weather Map New forecast layout! Learn more

10-Day Weather Forecast

Advertisements
Track Severe Weather on mobile